• Join FlightAware (Why Join?)
  • Login
  • US Flag 
06:34PM EDT


 

Airport Tracker/Info


-or-


 

Live Flight TrackerFlight Track Log ✈ USC105 ✈ 26-Apr-2013 ✈ KYIP - KLCK

Flight Track Log - Related Links

Times and Time Zones

All times are in EDT time to prevent confusion due to time zone crossing. See the USC105 flight status page for this flight to view local times or setup timezone preferences in your user account.

Time Position Orientation Groundspeed Altitude Reporting Facility
EDT Latitude Longitude Course Direction KTS MPH feet Rate Location/Type
06:38AM 42.2108 -83.5661 230° Southwest 110 127 2,400  Level Cleveland Center
06:39AM 42.1833 -83.5872 210° Southwest 148 170 3,300 960 Climbing Cleveland Center
06:40AM 42.1475 -83.6022 197° South 138 159 4,300 840 Climbing Cleveland Center
06:41AM 42.1097 -83.6089 187° South 160 184 5,000 300 Climbing Cleveland Center
06:42AM 42.0667 -83.5817 155° Southeast 179 206 5,000 180 Level Cleveland Center
06:43AM 41.9829 -83.4415 160° South  Level FlightAware Approximate
06:44AM 42.0000 -83.5616 160° South  Level Estimated
06:51AM 41.6954 -83.4707 164° South  Level Estimated
06:51AM 41.6539 -83.4083 162° South 186 214 6,900  Level Indianapolis Center
06:52AM 41.6518 -83.4578 180° South  Level Estimated
06:52AM 41.6000 -83.3939 169° South 191 220 6,900  Level Indianapolis Center
06:53AM 41.6050 -83.4374 162° South  Level FlightAware Approximate
06:53AM 41.5456 -83.3794 169° South 195 224 6,900  Level Indianapolis Center
06:54AM 41.5582 -83.4170 162° South  Level FlightAware Approximate
06:54AM 41.4925 -83.3658 169° South 194 223 6,900  Level Indianapolis Center
06:55AM 41.5114 -83.3966 162° South  Level FlightAware Approximate
06:55AM 41.4381 -83.3506 168° South 196 226 6,900  Level Indianapolis Center
06:56AM 41.4646 -83.3763 162° South  Level FlightAware Approximate
06:56AM 41.3847 -83.3356 168° South 196 226 6,900  Level Indianapolis Center
06:57AM 41.3294 -83.3219 170° South 198 228 6,900  Level Indianapolis Center
06:58AM 41.2661 -83.3047 168° South 198 228 6,900  Level Indianapolis Center
06:59AM 41.2122 -83.2911 169° South 197 227 6,900  Level Indianapolis Center
07:00AM 41.1569 -83.2753 168° South 199 229 6,900  Level Indianapolis Center
07:01AM 41.1028 -83.2617 169° South 198 228 7,000  Climbing Indianapolis Center
07:02AM 41.0472 -83.2472 169° South 200 230 7,000  Level Indianapolis Center
07:03AM 40.9928 -83.2325 168° South 200 230 7,000  Level Indianapolis Center
07:04AM 40.9378 -83.2186 169° South 200 230 7,000  Level Indianapolis Center
07:05AM 40.8828 -83.2036 168° South 200 230 7,000  Level Indianapolis Center
07:06AM 40.8289 -83.1889 168° South 198 228 7,000  Level Indianapolis Center
07:07AM 40.7706 -83.1742 169° South 200 230 7,000  Level Indianapolis Center
07:08AM 40.7161 -83.1594 168° South 198 228 7,000  Level Indianapolis Center
07:09AM 40.6633 -83.1467 170° South 200 230 7,000  Level Indianapolis Center
07:10AM 40.6094 -83.1322 168° South 196 226 7,000  Level Indianapolis Center
07:11AM 40.5544 -83.1167 168° South 199 229 7,000  Level Indianapolis Center
07:12AM 40.4967 -83.1019 169° South 199 229 7,000  Level Indianapolis Center
07:13AM 40.4425 -83.0764 160° South 203 234 7,000  Level Indianapolis Center
07:14AM 40.4028 -83.0575 160° South 205 236 7,000  Level Indianapolis Center
07:14AM 40.3900 -83.0469 148° Southeast 202 232 7,000  Level Indianapolis Center
07:15AM 40.3522 -83.0297 161° South 204 235 7,000  Level Indianapolis Center
07:15AM 40.3369 -83.0181 150° Southeast 204 235 7,000  Level Indianapolis Center
07:16AM 40.3000 -82.9989 158° South 204 235 7,000 -240 Level Indianapolis Center
07:16AM 40.2839 -82.9883 153° Southeast 205 236 6,800 -600 Descending Indianapolis Center
07:17AM 40.2456 -82.9681 158° South 209 241 6,400 -600 Descending Indianapolis Center
07:17AM 40.2297 -82.9575 153° Southeast 208 239 6,200 -420 Descending Indianapolis Center
07:18AM 40.1869 -82.9394 162° South 210 242 6,000 -240 Descending Indianapolis Center
07:18AM 40.1758 -82.9300 147° Southeast 207 238 6,000  Level Indianapolis Center
07:19AM 40.1383 -82.9147 163° South 191 220 6,000  Level Indianapolis Center
07:19AM 40.1264 -82.9078 156° South 189 217 6,000  Level Indianapolis Center
07:20AM 40.0897 -82.8903 160° South 182 209 6,000  Level Indianapolis Center
07:20AM 40.0781 -82.8822 152° Southeast 185 213 6,000 -720 Level Indianapolis Center
07:21AM 40.0411 -82.8656 161° South 188 216 5,300 -1,080 Descending Indianapolis Center
07:21AM 40.0275 -82.8592 160° South 189 217 4,900 -1,200 Descending Indianapolis Center
07:22AM 39.9856 -82.8511 172° South 202 232 4,100 -1,140 Descending Indianapolis Center
07:22AM 39.9714 -82.8478 170° South 199 229 3,800 -1,320 Descending Indianapolis Center
07:23AM 39.9333 -82.8506 183° South 194 223 2,800 -1,320 Descending Indianapolis Center
07:23AM 39.9181 -82.8531 187° South 196 226 2,500 -420 Descending Indianapolis Center
07:24AM 39.8844 -82.8614 191° South 181 208 2,400 -300 Descending Indianapolis Center
07:25AM 39.8697 -82.8661 194° South 186 214 2,200 -1,020 Descending Indianapolis Center
07:25AM 39.8472 -82.8869 215° Southwest 156 180 1,400 -1,020 Descending Indianapolis Center
07:26AM 39.8386 -82.8947 215° Southwest 153 176 1,200 -420 Descending Indianapolis Center
07:27AM 39.8122 -82.9283 224° Southwest 141 162 800 -420 Descending Indianapolis Center